Time;durP1;ratioP1;P1;durP2;ratioP2;P2;SDS_P1;SDS_P2;PMS_P1;PMS_P2;Temp;Humidity;BMP_temperature;BMP_pressure;BME280_temperature;BME280_humidity;BME280_pressure;Samples;Min_cycle;Max_cycle;Signal;HPM_P1;HPM_P2
2024/02/28 17:40:32;;;;;;;9.73;4.60;;;;;;;11.60;100.00;98468.31;4989258;28;20077;-64
2024/02/28 17:42:57;;;;;;;7.57;4.70;;;;;;;11.89;100.00;98514.03;4956782;28;20754;-63
2024/02/28 17:45:23;;;;;;;9.40;4.80;;;;;;;11.83;100.00;98515.47;4969567;28;20031;-63
2024/02/28 17:47:48;;;;;;;8.15;4.40;;;;;;;11.86;100.00;98519.56;4959371;28;20053;-64
2024/02/28 17:50:15;;;;;;;7.78;4.55;;;;;;;11.67;100.00;98489.34;4957446;28;20129;-64
2024/02/28 17:52:43;;;;;;;7.10;4.63;;;;;;;11.86;100.00;98529.97;4942374;28;20081;-64
2024/02/28 17:55:09;;;;;;;8.40;4.60;;;;;;;11.77;100.00;98504.84;4951887;28;20038;-64
2024/02/28 17:57:37;;;;;;;9.13;4.93;;;;;;;11.89;100.00;98535.69;4957706;28;20687;-64
2024/02/28 18:00:12;;;;;;;8.00;5.18;;;;;;;11.86;100.00;98529.97;4976358;28;20507;-61
2024/02/28 18:02:43;;;;;;;9.77;4.35;;;;;;;11.89;100.00;98538.31;4960281;28;20766;-60
2024/02/28 18:05:11;;;;;;;9.57;4.63;;;;;;;11.59;100.00;98497.09;4945106;28;20043;-62
2024/02/28 18:07:40;;;;;;;8.43;4.70;;;;;;;11.82;100.00;98541.69;4956941;28;20178;-60
2024/02/28 18:10:10;;;;;;;7.78;4.63;;;;;;;11.87;100.00;98542.84;4949697;28;20035;-60
2024/02/28 18:12:37;;;;;;;7.80;4.50;;;;;;;11.89;100.00;98550.53;4957262;28;20078;-63
2024/02/28 18:15:03;;;;;;;7.30;4.78;;;;;;;11.86;100.00;98549.03;4961922;28;20034;-60
2024/02/28 18:17:31;;;;;;;8.18;4.97;;;;;;;11.88;100.00;98552.31;4976374;28;20116;-61
2024/02/28 18:19:56;;;;;;;7.13;4.50;;;;;;;11.70;100.00;98526.31;4950181;28;20038;-61
2024/02/28 18:22:21;;;;;;;8.55;4.95;;;;;;;11.70;100.00;98520.28;4962527;28;20041;-60
2024/02/28 18:24:49;;;;;;;8.73;4.88;;;;;;;11.98;100.00;98561.84;4969942;28;20030;-60
2024/02/28 18:27:17;;;;;;;9.95;5.05;;;;;;;11.96;100.00;98562.00;4954469;28;20699;-62
2024/02/28 18:29:42;;;;;;;9.52;5.28;;;;;;;11.92;100.00;98543.25;4975035;28;20026;-60
2024/02/28 18:32:10;;;;;;;8.57;5.40;;;;;;;11.92;100.00;98550.25;4959700;28;20876;-60
2024/02/28 18:34:38;;;;;;;8.20;5.07;;;;;;;11.91;100.00;98546.81;4963467;28;20038;-61
2024/02/28 18:37:03;;;;;;;10.02;5.50;;;;;;;11.70;100.00;98520.28;4963552;28;20042;-62
2024/02/28 18:39:29;;;;;;;11.60;5.68;;;;;;;11.91;100.00;98553.81;4964759;28;20121;-60
2024/02/28 18:41:55;;;;;;;9.10;5.07;;;;;;;11.93;100.00;98559.69;4956739;28;20039;-63
2024/02/28 18:44:20;;;;;;;8.18;5.18;;;;;;;11.90;100.00;98562.59;4956883;28;20100;-62
2024/02/28 18:46:48;;;;;;;11.70;4.80;;;;;;;11.88;100.00;98567.09;4961652;28;20034;-66
2024/02/28 18:49:13;;;;;;;8.75;4.95;;;;;;;11.87;100.00;98568.91;4969256;28;20039;-61
2024/02/28 18:51:40;;;;;;;6.80;4.70;;;;;;;11.88;100.00;98567.94;4962216;28;20670;-61
2024/02/28 18:54:07;;;;;;;11.18;7.05;;;;;;;11.76;100.00;98570.97;4975920;28;20729;-62
2024/02/28 18:56:33;;;;;;;12.77;7.10;;;;;;;11.73;100.00;98565.06;4972947;28;20030;-64
2024/02/28 18:59:01;;;;;;;11.60;6.68;;;;;;;11.68;100.00;98558.69;4961398;28;21405;-61
2024/02/28 19:01:28;;;;;;;11.57;6.13;;;;;;;11.43;100.00;98527.28;4957715;28;20042;-61
2024/02/28 19:03:55;;;;;;;8.70;5.07;;;;;;;11.62;100.00;98554.91;4959709;28;20046;-61
2024/02/28 19:06:24;;;;;;;8.40;4.60;;;;;;;11.38;100.00;98567.75;4982593;28;20441;-61
2024/02/28 19:08:52;;;;;;;6.10;3.92;;;;;;;11.10;100.00;98524.44;4952486;28;20126;-61
2024/02/28 19:11:18;;;;;;;8.95;4.35;;;;;;;11.17;100.00;98574.09;4972033;28;20200;-61
2024/02/28 19:13:46;;;;;;;8.90;4.78;;;;;;;11.18;100.00;98556.69;4957304;28;20050;-62
2024/02/28 19:16:11;;;;;;;8.00;5.00;;;;;;;11.18;100.00;98554.91;4960827;28;20902;-62
2024/02/28 19:18:37;;;;;;;8.00;4.80;;;;;;;11.21;100.00;98566.78;4956701;28;20046;-61
2024/02/28 19:21:07;;;;;;;8.13;4.65;;;;;;;11.18;100.00;98562.72;4956892;28;20202;-61
2024/02/28 19:23:32;;;;;;;7.85;5.50;;;;;;;11.24;100.00;98576.91;4940090;28;20046;-63
2024/02/28 19:26:03;;;;;;;8.13;4.40;;;;;;;11.23;100.00;98570.09;4962125;28;20030;-62
2024/02/28 19:28:28;;;;;;;8.70;4.50;;;;;;;11.19;100.00;98573.94;4974633;28;20041;-61
2024/02/28 19:30:53;;;;;;;8.40;4.47;;;;;;;11.23;100.00;98575.28;4958161;28;20069;-62
2024/02/28 19:33:19;;;;;;;8.40;4.68;;;;;;;11.20;100.00;98575.56;4943700;28;20069;-63
2024/02/28 19:35:45;;;;;;;9.02;4.18;;;;;;;11.24;100.00;98576.91;4939569;28;20046;-63
2024/02/28 19:38:10;;;;;;;6.22;4.10;;;;;;;11.25;100.00;98579.38;4938092;28;20038;-64
2024/02/28 19:40:36;;;;;;;9.73;4.60;;;;;;;11.20;100.00;98576.38;4949305;28;20074;-63
2024/02/28 19:43:03;;;;;;;7.85;4.35;;;;;;;11.23;100.00;98580.50;4993028;28;21122;-63
2024/02/28 19:45:29;;;;;;;7.88;4.70;;;;;;;11.22;100.00;98584.06;4965661;28;20034;-62
2024/02/28 19:47:55;;;;;;;7.72;4.35;;;;;;;11.15;100.00;98573.41;4967601;28;20046;-61
2024/02/28 19:50:23;;;;;;;8.13;4.43;;;;;;;11.16;100.00;98588.06;4988488;28;20591;-60
2024/02/28 19:52:49;;;;;;;8.68;4.68;;;;;;;11.16;100.00;98586.28;4974344;28;20038;-61
2024/02/28 19:55:14;;;;;;;7.72;4.75;;;;;;;11.12;100.00;98582.34;4990092;28;20139;-63
2024/02/28 19:57:40;;;;;;;7.93;5.20;;;;;;;10.83;100.00;98551.34;4980848;28;20840;-62
2024/02/28 20:00:06;;;;;;;7.20;4.53;;;;;;;11.10;100.00;98593.88;4969633;28;20049;-65
2024/02/28 20:02:32;;;;;;;8.20;5.18;;;;;;;11.06;100.00;98595.13;4978275;28;20121;-63
2024/02/28 20:04:58;;;;;;;12.25;5.30;;;;;;;10.94;100.00;98599.75;4980011;28;20034;-63
2024/02/28 20:07:25;;;;;;;10.10;6.95;;;;;;;10.92;100.00;98592.06;4968836;28;20050;-62
2024/02/28 20:09:51;;;;;;;11.85;7.25;;;;;;;10.65;100.00;98572.13;4969497;28;20129;-62
2024/02/28 20:12:16;;;;;;;9.57;5.72;;;;;;;10.64;100.00;98604.31;4969657;28;20042;-64
2024/02/28 20:14:44;;;;;;;9.63;5.65;;;;;;;10.53;100.00;98607.91;4969040;28;20038;-63
2024/02/28 20:17:15;;;;;;;10.70;5.88;;;;;;;10.54;100.00;98606.94;4972089;28;20077;-62
2024/02/28 20:19:46;;;;;;;10.68;5.63;;;;;;;10.48;100.00;98604.91;4981672;28;20598;-62
2024/02/28 20:22:14;;;;;;;10.30;6.10;;;;;;;10.42;100.00;98612.47;4985961;28;20065;-63
2024/02/28 20:24:42;;;;;;;9.77;5.97;;;;;;;10.36;100.00;98611.25;4987354;28;20116;-64
2024/02/28 20:27:08;;;;;;;11.85;7.22;;;;;;;10.09;100.00;98567.84;4961236;28;20057;-62
2024/02/28 20:29:36;;;;;;;12.48;8.20;;;;;;;10.48;100.00;98612.72;4970460;28;20209;-66
2024/02/28 20:32:01;;;;;;;12.15;8.50;;;;;;;10.58;100.00;98603.06;4969809;28;20038;-66
2024/02/28 20:34:29;;;;;;;11.30;8.27;;;;;;;10.66;100.00;98607.56;4964164;28;20588;-66
2024/02/28 20:36:57;;;;;;;13.13;8.13;;;;;;;10.55;100.00;98592.16;4963271;28;20034;-63
2024/02/28 20:39:22;;;;;;;11.43;8.30;;;;;;;10.54;100.00;98608.72;4976635;28;20121;-63
2024/02/28 20:41:51;;;;;;;10.50;8.35;;;;;;;10.45;100.00;98615.59;5000350;28;20141;-64
2024/02/28 20:44:16;;;;;;;12.05;8.05;;;;;;;10.41;100.00;98610.84;4998167;28;20026;-62
2024/02/28 20:46:42;;;;;;;10.43;8.40;;;;;;;10.41;100.00;98618.66;4961728;28;20089;-62
2024/02/28 20:49:07;;;;;;;12.02;9.00;;;;;;;10.37;100.00;98603.31;4953721;28;20554;-65
2024/02/28 20:51:33;;;;;;;13.75;9.00;;;;;;;10.27;100.00;98578.31;4978325;28;20052;-65
2024/02/28 20:53:59;;;;;;;10.48;7.32;;;;;;;10.60;100.00;98625.53;4972834;28;20034;-68
2024/02/28 20:56:25;;;;;;;11.27;7.32;;;;;;;10.63;100.00;98618.25;4987698;28;20760;-67
2024/02/28 20:58:54;;;;;;;10.63;7.28;;;;;;;10.65;100.00;98628.50;4975048;28;20033;-68
2024/02/28 21:01:21;;;;;;;13.82;7.80;;;;;;;10.64;100.00;98616.47;4973064;28;20042;-65
2024/02/28 21:03:46;;;;;;;11.80;7.80;;;;;;;10.35;100.00;98575.84;4979061;28;20528;-62
2024/02/28 21:06:17;;;;;;;11.85;8.52;;;;;;;10.67;100.00;98623.97;4977650;28;20132;-68
2024/02/28 21:08:42;;;;;;;12.07;8.95;;;;;;;10.69;100.00;98616.84;4973748;28;20058;-69
2024/02/28 21:11:08;;;;;;;10.75;8.32;;;;;;;10.73;100.00;98619.03;4975587;28;20050;-65
2024/02/28 21:13:37;;;;;;;10.55;8.05;;;;;;;10.74;100.00;98614.63;4948109;28;20038;-68
2024/02/28 21:16:05;;;;;;;10.43;8.05;;;;;;;10.61;100.00;98585.56;4958157;28;20034;-62
2024/02/28 21:18:30;;;;;;;10.93;7.18;;;;;;;10.53;100.00;98566.31;4966217;28;20039;-63
2024/02/28 21:20:57;;;;;;;11.10;6.72;;;;;;;10.81;100.00;98613.09;4981941;28;20072;-65
2024/02/28 21:23:22;;;;;;;9.82;7.20;;;;;;;10.61;100.00;98607.19;4982182;28;20034;-63
2024/02/28 21:25:50;;;;;;;10.40;7.22;;;;;;;10.17;100.00;98562.75;4971521;28;21094;-62
2024/02/28 21:28:18;;;;;;;11.13;7.47;;;;;;;10.49;100.00;98616.94;4967165;28;20084;-67
2024/02/28 21:30:44;;;;;;;11.57;6.75;;;;;;;10.36;100.00;98570.47;4995717;28;20049;-65
2024/02/28 21:33:09;;;;;;;10.65;7.47;;;;;;;10.22;100.00;98602.09;4988469;28;20034;-64
2024/02/28 21:35:36;;;;;;;11.23;8.75;;;;;;;10.14;100.00;98605.41;4965636;28;20038;-64
2024/02/28 21:38:01;;;;;;;9.68;7.35;;;;;;;10.24;100.00;98599.38;4989932;28;20053;-62
2024/02/28 21:40:27;;;;;;;9.90;7.13;;;;;;;10.37;100.00;98605.13;4962525;28;20057;-66
2024/02/28 21:42:56;;;;;;;9.13;6.88;;;;;;;10.39;100.00;98603.19;4977489;28;20033;-62
2024/02/28 21:45:26;;;;;;;11.33;7.13;;;;;;;10.43;100.00;98599.31;4968600;28;20091;-64
2024/02/28 21:47:55;;;;;;;10.82;7.22;;;;;;;10.47;100.00;98599.88;4988667;28;20042;-64
2024/02/28 21:50:23;;;;;;;10.77;7.38;;;;;;;10.14;100.00;98550.06;4960177;28;20042;-62
2024/02/28 21:52:52;;;;;;;10.35;7.45;;;;;;;10.43;100.00;98595.91;4977066;28;20046;-64
2024/02/28 21:55:17;;;;;;;9.32;7.05;;;;;;;10.31;100.00;98583.13;4972616;28;20838;-63
2024/02/28 21:57:45;;;;;;;10.30;7.53;;;;;;;10.30;100.00;98594.44;4989008;28;20053;-63
2024/02/28 22:00:12;;;;;;;10.57;7.35;;;;;;;10.32;100.00;98602.94;4970478;28;20730;-64
2024/02/28 22:02:37;;;;;;;10.32;7.43;;;;;;;10.05;100.00;98562.09;4956022;28;20065;-64
2024/02/28 22:05:03;;;;;;;10.68;7.38;;;;;;;10.30;100.00;98604.03;4980168;28;20200;-65
2024/02/28 22:07:29;;;;;;;10.73;8.00;;;;;;;10.25;100.00;98601.84;4995612;28;20049;-64
2024/02/28 22:09:56;;;;;;;11.20;7.25;;;;;;;10.03;100.00;98582.22;4980278;28;20149;-64
2024/02/28 22:12:22;;;;;;;10.48;7.05;;;;;;;10.18;100.00;98614.59;4979163;28;20773;-62
2024/02/28 22:14:47;;;;;;;12.93;6.70;;;;;;;10.02;100.00;98591.00;4994044;28;20037;-62
2024/02/28 22:17:12;;;;;;;11.35;6.80;;;;;;;10.15;100.00;98606.25;4977442;28;20038;-63
2024/02/28 22:19:38;;;;;;;9.18;6.70;;;;;;;10.22;100.00;98612.50;4958574;28;20533;-65
2024/02/28 22:22:06;;;;;;;12.52;6.38;;;;;;;10.25;100.00;98611.41;4963738;28;20034;-64
2024/02/28 22:24:32;;;;;;;11.68;6.95;;;;;;;10.20;100.00;98615.25;4981889;28;20038;-65
2024/02/28 22:27:02;;;;;;;10.48;6.93;;;;;;;10.20;100.00;98617.03;4974834;28;20038;-64
2024/02/28 22:29:33;;;;;;;9.45;7.13;;;;;;;10.14;100.00;98615.00;4958738;28;20140;-63
2024/02/28 22:31:58;;;;;;;13.18;7.35;;;;;;;10.23;100.00;98608.97;4982723;28;20038;-65
2024/02/28 22:34:23;;;;;;;9.43;7.07;;;;;;;10.28;100.00;98611.94;4979108;28;20048;-66
2024/02/28 22:36:52;;;;;;;12.43;7.68;;;;;;;10.30;100.00;98610.03;4991041;28;20038;-63
2024/02/28 22:39:17;;;;;;;12.00;7.20;;;;;;;10.29;100.00;98612.75;4978376;28;20689;-65
2024/02/28 22:41:48;;;;;;;12.30;7.15;;;;;;;10.31;100.00;98609.09;4979740;28;20049;-65
2024/02/28 22:44:15;;;;;;;9.57;6.72;;;;;;;10.22;100.00;98593.50;4973523;28;20124;-63
2024/02/28 22:46:43;;;;;;;9.82;6.93;;;;;;;10.34;100.00;98606.19;4960330;28;20042;-63
2024/02/28 22:49:11;;;;;;;9.85;7.18;;;;;;;10.31;100.00;98598.72;4956314;28;20088;-61
2024/02/28 22:51:36;;;;;;;12.20;6.90;;;;;;;10.32;100.00;98610.72;4974714;28;20040;-62
2024/02/28 22:54:02;;;;;;;9.30;6.85;;;;;;;10.32;100.00;98599.53;4973434;28;20034;-62
2024/02/28 22:56:32;;;;;;;10.48;6.85;;;;;;;10.31;100.00;98600.47;4957624;28;20035;-63
2024/02/28 22:59:00;;;;;;;10.45;6.55;;;;;;;10.29;100.00;98604.97;4979363;28;20603;-64
2024/02/28 23:01:26;;;;;;;8.60;6.40;;;;;;;10.22;100.00;98599.50;4972571;28;20088;-62
2024/02/28 23:03:54;;;;;;;9.80;6.60;;;;;;;10.32;100.00;98615.94;4991568;28;20041;-65
2024/02/28 23:06:22;;;;;;;11.38;6.85;;;;;;;10.09;100.00;98580.84;4978470;28;20084;-63
2024/02/28 23:08:50;;;;;;;10.88;6.75;;;;;;;10.28;100.00;98605.94;4953187;28;20035;-66
2024/02/28 23:11:18;;;;;;;10.35;7.55;;;;;;;10.12;100.00;98614.34;4983911;28;20041;-62
2024/02/28 23:13:44;;;;;;;10.70;7.15;;;;;;;10.06;100.00;98618.31;4967468;28;20137;-63
2024/02/28 23:16:09;;;;;;;9.95;6.90;;;;;;;10.06;100.00;98615.72;4973886;28;20045;-61
2024/02/28 23:18:35;;;;;;;10.63;7.07;;;;;;;9.95;100.00;98610.69;4984658;28;20041;-63
2024/02/28 23:21:05;;;;;;;10.68;7.25;;;;;;;9.87;100.00;98618.34;4977843;28;20129;-65
2024/02/28 23:23:32;;;;;;;11.57;6.90;;;;;;;9.90;100.00;98613.69;4982969;28;20068;-62
2024/02/28 23:25:58;;;;;;;10.35;6.30;;;;;;;9.99;100.00;98617.25;4960145;28;20068;-63
2024/02/28 23:28:23;;;;;;;10.88;6.68;;;;;;;9.91;100.00;98617.94;4982212;28;20034;-63
2024/02/28 23:30:49;;;;;;;9.50;6.68;;;;;;;9.98;100.00;98623.38;4960405;28;20157;-63
2024/02/28 23:33:16;;;;;;;10.68;6.82;;;;;;;9.90;100.00;98628.47;4980188;28;20056;-64
2024/02/28 23:35:43;;;;;;;10.60;6.60;;;;;;;9.65;100.00;98627.28;4976542;28;20038;-62
2024/02/28 23:38:09;;;;;;;9.98;6.22;;;;;;;9.71;100.00;98626.72;4971130;28;21146;-63
2024/02/28 23:40:37;;;;;;;9.38;6.35;;;;;;;9.57;100.00;98617.59;4983214;28;20058;-64
2024/02/28 23:43:03;;;;;;;12.07;6.35;;;;;;;9.54;100.00;98607.47;4987413;28;20049;-62
2024/02/28 23:45:28;;;;;;;9.30;6.32;;;;;;;9.47;100.00;98621.94;4983237;28;20030;-63
2024/02/28 23:47:54;;;;;;;9.50;5.70;;;;;;;9.46;100.00;98608.16;4972998;28;20128;-64
2024/02/28 23:50:21;;;;;;;9.10;5.97;;;;;;;9.48;100.00;98602.84;4975566;28;20041;-63
2024/02/28 23:52:47;;;;;;;8.45;5.70;;;;;;;9.15;100.00;98569.38;4980172;28;20064;-61
2024/02/28 23:55:15;;;;;;;10.88;5.75;;;;;;;9.37;100.00;98607.22;4967187;28;20458;-64
2024/02/28 23:57:43;;;;;;;9.25;5.63;;;;;;;9.33;100.00;98605.84;4978355;28;20062;-63
